Time;durP1;ratioP1;P1;durP2;ratioP2;P2;SDS_P1;SDS_P2;PMS_P1;PMS_P2;Temp;Humidity;BMP_temperature;BMP_pressure;BME280_temperature;BME280_humidity;BME280_pressure;Samples;Min_cycle;Max_cycle;Signal;HPM_P1;HPM_P2
2021/12/23 00:01:31;;;;;;;451.63;176.35;;;-2.80;99.90;;;;;;5074655;28;20040;-49
2021/12/23 00:03:57;;;;;;;450.88;174.95;;;-2.80;99.90;;;;;;5074530;28;20075;-49
2021/12/23 00:06:23;;;;;;;409.23;158.20;;;-2.80;99.90;;;;;;5074610;28;20028;-49
2021/12/23 00:08:49;;;;;;;452.50;176.60;;;-2.80;99.90;;;;;;5074730;28;20037;-49
2021/12/23 00:11:15;;;;;;;450.42;175.75;;;-3.00;99.90;;;;;;5074431;28;20187;-49
2021/12/23 00:13:50;;;;;;;436.73;165.15;;;-3.10;99.90;;;;;;5074416;28;20021;-49
2021/12/23 00:16:30;;;;;;;422.58;164.43;;;-3.10;99.90;;;;;;5074693;28;20035;-49
2021/12/23 00:19:02;;;;;;;399.20;157.30;;;-3.10;99.90;;;;;;5074392;28;20067;-49
2021/12/23 00:24:13;;;;;;;360.55;139.32;;;-3.00;99.90;;;;;;5074359;28;20039;-49
2021/12/23 00:26:39;;;;;;;384.08;149.88;;;-3.10;99.90;;;;;;5074386;28;20024;-49
2021/12/23 00:29:05;;;;;;;383.55;148.98;;;-3.10;99.90;;;;;;5074354;28;20032;-49
2021/12/23 00:31:31;;;;;;;371.67;146.50;;;-3.20;99.90;;;;;;5074409;28;20029;-49
2021/12/23 00:33:57;;;;;;;361.88;145.32;;;-3.20;99.90;;;;;;5074126;28;20017;-49
2021/12/23 00:36:22;;;;;;;349.10;146.82;;;-3.10;99.90;;;;;;5074270;28;20550;-49
2021/12/23 00:38:53;;;;;;;374.60;150.38;;;-3.10;99.90;;;;;;5074173;28;20024;-49
2021/12/23 00:41:20;;;;;;;;;;;-3.20;99.90;;;;;;5074662;28;20406;-49
2021/12/23 00:43:47;;;;;;;350.63;137.60;;;-3.20;99.90;;;;;;5074060;28;20321;-49
2021/12/23 00:46:12;;;;;;;356.70;140.57;;;-3.20;99.90;;;;;;5074143;28;20025;-49
2021/12/23 00:48:39;;;;;;;345.27;134.55;;;-3.20;99.90;;;;;;5074230;28;20042;-49
2021/12/23 00:51:06;;;;;;;316.48;129.63;;;-3.20;99.90;;;;;;5074216;28;20041;-49
2021/12/23 00:53:37;;;;;;;349.48;137.48;;;-3.20;99.90;;;;;;5074128;28;20024;-49
2021/12/23 00:56:04;;;;;;;358.80;142.90;;;-3.20;99.90;;;;;;5073918;28;20458;-49
2021/12/23 00:58:30;;;;;;;401.02;154.25;;;-3.20;99.90;;;;;;5073942;28;20104;-49
2021/12/23 01:00:59;;;;;;;508.15;197.27;;;-3.10;99.90;;;;;;5073906;28;20028;-49
2021/12/23 01:03:25;;;;;;;549.75;225.50;;;-3.10;99.90;;;;;;5087313;28;20103;-49
2021/12/23 01:05:51;;;;;;;536.13;217.65;;;-3.00;99.90;;;;;;5094177;28;20028;-49
2021/12/23 01:08:19;;;;;;;549.15;221.02;;;-3.00;99.90;;;;;;5094107;28;20035;-49
2021/12/23 01:10:50;;;;;;;536.80;218.27;;;-3.00;99.90;;;;;;5093791;28;20080;-49
2021/12/23 01:13:18;;;;;;;502.42;205.07;;;-2.90;99.90;;;;;;5093384;28;20027;-49
2021/12/23 01:16:00;;;;;;;471.05;188.88;;;-2.90;99.90;;;;;;5094223;28;20466;-49
2021/12/23 01:18:30;;;;;;;445.92;178.77;;;-3.00;99.90;;;;;;5093942;28;20028;-49
2021/12/23 01:21:14;;;;;;;433.30;174.48;;;-2.90;99.90;;;;;;5094072;28;20031;-49
2021/12/23 01:23:43;;;;;;;442.88;172.63;;;-3.00;99.90;;;;;;5093855;28;20039;-49
2021/12/23 01:26:09;;;;;;;451.67;178.10;;;-3.00;99.90;;;;;;5094213;28;20416;-49
2021/12/23 01:28:34;;;;;;;413.67;164.18;;;-3.00;99.90;;;;;;5094181;28;20039;-49
2021/12/23 01:31:00;;;;;;;386.65;152.75;;;-3.00;99.90;;;;;;5093882;28;20111;-49
2021/12/23 01:33:26;;;;;;;348.88;141.27;;;-3.00;99.90;;;;;;5094016;28;20484;-49
2021/12/23 01:35:52;;;;;;;336.70;136.43;;;-3.00;99.90;;;;;;5096235;28;20024;-49
2021/12/23 01:38:18;;;;;;;323.48;130.30;;;-3.00;99.90;;;;;;5097594;28;20089;-49
2021/12/23 01:40:46;;;;;;;315.92;126.10;;;-3.00;99.90;;;;;;5097636;28;20081;-49
2021/12/23 01:43:19;;;;;;;306.45;123.20;;;-3.00;99.90;;;;;;5097596;28;20035;-49
2021/12/23 01:45:47;;;;;;;304.20;119.70;;;-3.20;99.90;;;;;;5097541;28;20508;-49
2021/12/23 01:48:14;;;;;;;277.50;115.75;;;-3.30;99.90;;;;;;5097557;28;20031;-49
2021/12/23 01:50:41;;;;;;;268.75;112.50;;;-3.40;99.90;;;;;;5097522;28;20095;-49
2021/12/23 01:53:07;;;;;;;286.77;114.80;;;-3.40;99.90;;;;;;5097397;28;20028;-49
2021/12/23 01:55:35;;;;;;;260.23;108.75;;;-3.40;99.90;;;;;;5097774;28;20027;-49
2021/12/23 01:58:03;;;;;;;240.32;100.22;;;-3.40;99.90;;;;;;5097339;28;20072;-49
2021/12/23 02:00:33;;;;;;;261.70;106.68;;;-3.40;99.90;;;;;;5097204;28;20028;-49
2021/12/23 02:03:00;;;;;;;303.95;122.72;;;-3.40;99.90;;;;;;5087363;28;20513;-49
2021/12/23 02:05:27;;;;;;;255.40;110.28;;;-3.50;99.90;;;;;;5076943;28;20027;-49
2021/12/23 02:07:53;;;;;;;269.25;109.18;;;-3.50;99.90;;;;;;5077025;28;20032;-49
2021/12/23 02:10:19;;;;;;;287.88;119.93;;;-3.50;99.90;;;;;;5076895;28;20030;-49
2021/12/23 02:12:47;;;;;;;300.95;122.80;;;-3.60;99.90;;;;;;5075668;28;20439;-49
2021/12/23 02:15:15;;;;;;;273.77;114.50;;;-3.60;99.90;;;;;;5076690;28;20075;-49
2021/12/23 02:17:41;;;;;;;272.50;112.78;;;-3.60;99.90;;;;;;5076549;28;20029;-49
2021/12/23 02:20:13;;;;;;;264.08;110.07;;;-3.60;99.90;;;;;;5076739;28;20020;-49
2021/12/23 02:22:40;;;;;;;249.27;103.45;;;-3.70;99.90;;;;;;5076645;28;20108;-49
2021/12/23 02:25:08;;;;;;;247.80;101.88;;;-3.80;99.90;;;;;;5076647;28;20033;-49
2021/12/23 02:27:34;;;;;;;248.45;105.32;;;-3.80;99.90;;;;;;5076595;28;20394;-49
2021/12/23 02:30:01;;;;;;;246.70;102.32;;;-3.80;99.90;;;;;;5076482;28;20029;-49
2021/12/23 02:32:27;;;;;;;254.05;105.97;;;-3.90;99.90;;;;;;5076319;28;20061;-49
2021/12/23 02:34:53;;;;;;;256.27;105.78;;;-3.90;99.90;;;;;;5076457;28;20025;-49
2021/12/23 02:37:19;;;;;;;257.25;109.63;;;-3.90;99.90;;;;;;5076401;28;20047;-49
2021/12/23 02:39:45;;;;;;;250.20;106.57;;;-3.90;99.90;;;;;;5076190;28;20080;-49
2021/12/23 02:42:11;;;;;;;257.23;106.32;;;-4.00;99.90;;;;;;5076115;28;20111;-49
2021/12/23 02:44:37;;;;;;;241.75;98.03;;;-4.10;99.90;;;;;;5076211;28;20112;-49
2021/12/23 02:47:03;;;;;;;240.32;100.32;;;-4.00;99.90;;;;;;5075087;28;20056;-49
2021/12/23 02:49:29;;;;;;;258.50;108.78;;;-4.10;99.90;;;;;;5076073;28;20429;-49
2021/12/23 02:51:55;;;;;;;356.65;148.75;;;-4.10;99.90;;;;;;5075901;28;20081;-49
2021/12/23 02:54:21;;;;;;;380.40;134.95;;;-4.20;99.90;;;;;;5075988;28;20035;-49
2021/12/23 02:56:47;;;;;;;519.40;169.48;;;-4.10;99.90;;;;;;5075779;28;20031;-49
2021/12/23 02:59:13;;;;;;;490.02;153.80;;;-4.20;99.90;;;;;;5075852;28;20096;-49
2021/12/23 03:01:39;;;;;;;382.05;127.60;;;-4.20;99.90;;;;;;5075881;28;20421;-49
2021/12/23 03:04:05;;;;;;;358.30;121.50;;;-4.30;99.90;;;;;;5075613;28;20091;-49
2021/12/23 03:06:31;;;;;;;420.13;146.13;;;-4.20;99.90;;;;;;5075995;28;20033;-49
2021/12/23 03:09:00;;;;;;;377.98;130.95;;;-4.20;99.90;;;;;;5075734;28;20035;-49
2021/12/23 03:11:28;;;;;;;298.98;112.38;;;-4.20;99.90;;;;;;5075540;28;20082;-49
2021/12/23 03:13:55;;;;;;;282.00;105.03;;;-4.40;99.90;;;;;;5055453;28;20418;-50
2021/12/23 03:16:23;;;;;;;399.77;138.57;;;-4.40;99.90;;;;;;5055613;28;20266;-49
2021/12/23 03:18:50;;;;;;;355.70;128.35;;;-4.30;99.90;;;;;;5073069;28;20438;-49
2021/12/23 03:21:16;;;;;;;303.15;112.72;;;-4.20;99.90;;;;;;5075406;28;20511;-49
2021/12/23 03:23:43;;;;;;;262.00;98.78;;;-4.30;99.90;;;;;;5057351;28;20401;-49
2021/12/23 03:26:10;;;;;;;310.90;113.07;;;-4.30;99.90;;;;;;5075281;28;20032;-49
2021/12/23 03:28:36;;;;;;;927.83;313.63;;;-4.30;99.90;;;;;;5075246;28;20028;-49
2021/12/23 03:31:03;;;;;;;910.78;303.42;;;-4.30;99.90;;;;;;5075173;28;20032;-49
2021/12/23 03:33:29;;;;;;;938.60;309.65;;;-4.30;99.90;;;;;;5074996;28;20050;-49
2021/12/23 03:35:55;;;;;;;956.20;312.50;;;-4.10;99.90;;;;;;5075146;28;20466;-49
2021/12/23 03:38:23;;;;;;;1318.35;424.73;;;-4.20;99.90;;;;;;5075106;28;20034;-49
2021/12/23 03:40:49;;;;;;;1267.78;407.75;;;-4.20;99.90;;;;;;5075046;28;20055;-49
2021/12/23 03:43:17;;;;;;;1388.22;440.42;;;-4.20;99.90;;;;;;5074866;28;20033;-49
2021/12/23 03:45:44;;;;;;;627.50;197.02;;;-4.30;99.90;;;;;;5074831;28;20028;-49
2021/12/23 03:48:11;;;;;;;1009.47;325.20;;;-4.30;99.90;;;;;;5075059;28;20477;-49
2021/12/23 03:50:38;;;;;;;914.72;295.77;;;-4.30;99.90;;;;;;5075062;28;20381;-49
2021/12/23 03:53:04;;;;;;;412.00;129.70;;;-4.30;99.90;;;;;;5074702;28;20031;-49
2021/12/23 03:55:31;;;;;;;322.08;102.70;;;-4.40;99.90;;;;;;5074863;28;20029;-49
2021/12/23 03:57:57;;;;;;;361.67;111.32;;;-4.40;99.90;;;;;;5074398;28;20112;-49
2021/12/23 04:00:24;;;;;;;324.08;104.65;;;-4.30;99.90;;;;;;5074733;28;20052;-49
2021/12/23 04:02:52;;;;;;;452.02;137.52;;;-4.30;99.90;;;;;;5083020;28;20051;-49
2021/12/23 04:05:19;;;;;;;603.30;186.35;;;-4.30;99.90;;;;;;5094922;28;20028;-49
2021/12/23 04:07:45;;;;;;;625.83;206.38;;;-4.20;99.90;;;;;;5094850;28;20469;-49
2021/12/23 04:10:17;;;;;;;535.90;169.30;;;-4.10;99.90;;;;;;5094973;28;20112;-49
2021/12/23 04:12:45;;;;;;;537.00;179.57;;;-4.00;99.90;;;;;;5094712;28;20185;-49
2021/12/23 04:15:11;;;;;;;538.83;184.32;;;-4.00;99.90;;;;;;5094736;28;20026;-49
2021/12/23 04:17:37;;;;;;;650.65;243.90;;;-4.10;99.90;;;;;;5094547;28;20073;-49
2021/12/23 04:20:18;;;;;;;707.67;257.63;;;-4.10;99.90;;;;;;5094692;28;20032;-49
2021/12/23 04:22:45;;;;;;;807.08;299.67;;;-4.00;99.90;;;;;;5094453;28;20035;-49
2021/12/23 04:25:12;;;;;;;676.75;238.80;;;-4.00;99.90;;;;;;5094498;28;20028;-49
2021/12/23 04:27:39;;;;;;;531.25;179.00;;;-3.90;99.90;;;;;;5094788;28;20024;-49
2021/12/23 04:30:07;;;;;;;413.80;142.13;;;-3.90;99.90;;;;;;5094474;28;20031;-49
2021/12/23 04:32:33;;;;;;;394.10;133.00;;;-3.80;99.90;;;;;;5094647;28;20027;-49
2021/12/23 04:34:59;;;;;;;439.08;137.32;;;-3.80;99.90;;;;;;5076342;28;20028;-49
2021/12/23 04:37:25;;;;;;;357.52;115.35;;;-3.70;99.90;;;;;;5094284;28;20021;-49
2021/12/23 04:39:51;;;;;;;392.08;127.07;;;-3.70;99.90;;;;;;5094538;28;20032;-49
2021/12/23 04:42:17;;;;;;;288.48;100.70;;;-3.70;99.90;;;;;;5094314;28;20036;-49
2021/12/23 04:44:43;;;;;;;318.50;107.38;;;-3.70;99.90;;;;;;5094465;28;20036;-49
2021/12/23 04:47:09;;;;;;;318.40;105.75;;;-3.80;99.90;;;;;;5094543;28;20036;-49
2021/12/23 04:49:35;;;;;;;304.83;103.10;;;-3.90;99.90;;;;;;5094478;28;20036;-49
2021/12/23 04:52:01;;;;;;;235.88;86.40;;;-4.00;99.90;;;;;;5094196;28;20079;-49
2021/12/23 04:54:27;;;;;;;181.73;74.75;;;-4.00;99.90;;;;;;5094439;28;20031;-49
2021/12/23 04:56:53;;;;;;;201.80;75.53;;;-3.90;99.90;;;;;;5094271;28;20466;-49
2021/12/23 04:59:20;;;;;;;190.32;72.43;;;-4.00;99.90;;;;;;5094275;28;20048;-49
2021/12/23 05:01:47;;;;;;;184.05;73.32;;;-4.00;99.90;;;;;;5094349;28;20085;-49
2021/12/23 05:04:13;;;;;;;193.80;76.50;;;-4.00;99.90;;;;;;5094018;28;20040;-49
2021/12/23 05:06:40;;;;;;;158.32;63.58;;;-3.90;99.90;;;;;;5094256;28;20067;-49
2021/12/23 05:09:07;;;;;;;148.65;61.20;;;-3.80;99.90;;;;;;5094333;28;20025;-49
2021/12/23 05:11:33;;;;;;;149.98;63.58;;;-3.80;99.90;;;;;;5097383;28;20028;-49
2021/12/23 05:13:59;;;;;;;168.32;68.10;;;-3.90;99.90;;;;;;5098063;28;20024;-49
2021/12/23 05:16:25;;;;;;;181.90;69.38;;;-3.90;99.90;;;;;;5098306;28;20034;-49
2021/12/23 05:18:51;;;;;;;172.63;68.65;;;-3.90;99.90;;;;;;5097927;28;20123;-49
2021/12/23 05:21:16;;;;;;;194.55;74.55;;;-3.90;99.90;;;;;;5097945;28;20078;-49
2021/12/23 05:23:42;;;;;;;202.25;77.53;;;-3.80;99.90;;;;;;5097997;28;20043;-49
2021/12/23 05:26:09;;;;;;;214.65;76.45;;;-3.70;99.90;;;;;;5079798;28;20032;-49
2021/12/23 05:28:35;;;;;;;326.48;115.68;;;-3.50;99.90;;;;;;5097915;28;20035;-49
2021/12/23 05:31:02;;;;;;;353.08;121.55;;;-3.40;99.90;;;;;;5097777;28;20035;-49
2021/12/23 05:33:28;;;;;;;443.30;143.75;;;-3.30;99.90;;;;;;5097514;28;20031;-49
2021/12/23 05:35:55;;;;;;;358.25;124.65;;;-3.40;99.90;;;;;;5098033;28;20442;-49
2021/12/23 05:38:22;;;;;;;283.30;107.07;;;-3.40;99.90;;;;;;5097765;28;20097;-49
2021/12/23 05:40:48;;;;;;;199.88;78.82;;;-3.40;99.90;;;;;;5097469;28;20043;-49
2021/12/23 05:43:14;;;;;;;193.25;78.78;;;-3.30;99.90;;;;;;5097421;28;20017;-49
2021/12/23 05:45:40;;;;;;;208.40;82.03;;;-3.20;99.90;;;;;;5097252;28;20024;-49
2021/12/23 05:48:06;;;;;;;235.85;93.13;;;-3.10;99.90;;;;;;5097499;28;20038;-49
2021/12/23 05:50:32;;;;;;;197.95;81.40;;;-3.00;99.90;;;;;;5097478;28;20016;-49
2021/12/23 05:52:58;;;;;;;185.10;75.03;;;-2.90;99.90;;;;;;5097226;28;20065;-49
2021/12/23 05:55:25;;;;;;;170.27;70.85;;;-2.90;99.90;;;;;;5097507;28;20461;-49
2021/12/23 05:57:52;;;;;;;185.93;78.28;;;-2.80;99.90;;;;;;5097224;28;20500;-49
2021/12/23 06:00:25;;;;;;;186.95;76.53;;;-2.80;99.90;;;;;;5097136;28;20056;-49
2021/12/23 06:02:51;;;;;;;192.45;79.78;;;-2.80;99.90;;;;;;5097136;28;20139;-49
2021/12/23 06:05:18;;;;;;;200.57;78.05;;;-2.70;99.90;;;;;;5097199;28;20047;-49
2021/12/23 06:07:44;;;;;;;236.57;89.45;;;-2.60;99.90;;;;;;5097016;28;20610;-49
2021/12/23 06:10:12;;;;;;;266.45;91.00;;;-2.50;99.90;;;;;;5096952;28;20024;-49
2021/12/23 06:12:39;;;;;;;258.10;90.97;;;-2.40;99.90;;;;;;5096864;28;20177;-49
2021/12/23 06:15:06;;;;;;;300.65;99.35;;;-2.50;99.90;;;;;;5096903;28;20097;-49
2021/12/23 06:17:32;;;;;;;311.83;101.97;;;-2.50;99.90;;;;;;5095188;28;20055;-49
2021/12/23 06:19:58;;;;;;;255.63;91.07;;;-2.60;99.90;;;;;;5090421;28;20028;-50
2021/12/23 06:22:24;;;;;;;229.88;83.32;;;-2.60;99.90;;;;;;5088278;28;20039;-50
2021/12/23 06:24:50;;;;;;;193.10;75.07;;;-2.70;99.90;;;;;;5093978;28;20034;-51
2021/12/23 06:27:17;;;;;;;194.90;73.32;;;-2.60;99.90;;;;;;5092792;28;20102;-51
2021/12/23 06:29:44;;;;;;;211.50;76.75;;;-2.70;99.90;;;;;;5086309;28;20378;-51
2021/12/23 06:32:10;;;;;;;198.07;72.15;;;-2.80;99.90;;;;;;5099037;28;20059;-51
2021/12/23 06:42:23;;;;;;;198.77;71.45;;;-2.60;99.90;;;;;;5090042;28;20082;-51
2021/12/23 06:44:49;;;;;;;212.18;72.82;;;-2.60;99.90;;;;;;5090483;28;20351;-50
2021/12/23 06:47:23;;;;;;;193.05;71.40;;;-2.90;99.90;;;;;;5093835;28;20575;-50
2021/12/23 06:49:49;;;;;;;198.07;74.18;;;-3.00;99.90;;;;;;5076715;28;20047;-52
2021/12/23 06:52:19;;;;;;;196.95;72.43;;;-3.00;99.90;;;;;;5091562;28;20054;-50
2021/12/23 06:59:28;;;;;;;221.13;74.63;;;-3.00;99.90;;;;;;5034226;28;20064;-51
2021/12/23 07:01:54;;;;;;;208.43;73.90;;;-2.90;99.90;;;;;;5095490;28;20028;-51
2021/12/23 07:04:23;;;;;;;192.77;75.05;;;-2.90;99.90;;;;;;5094168;28;20213;-50
2021/12/23 07:06:59;;;;;;;235.18;90.45;;;-2.70;99.90;;;;;;5091780;28;20543;-50
2021/12/23 07:09:25;;;;;;;216.18;83.88;;;-2.60;99.90;;;;;;5092159;28;20112;-50
2021/12/23 07:11:51;;;;;;;226.32;86.85;;;-2.50;99.90;;;;;;5091046;28;20055;-51
2021/12/23 07:14:17;;;;;;;241.70;92.93;;;-2.40;99.90;;;;;;5064847;28;20106;-49
2021/12/23 07:20:38;;;;;;;226.38;86.95;;;-2.10;99.90;;;;;;5072823;28;20142;-50
2021/12/23 07:23:05;;;;;;;234.50;87.45;;;-2.10;99.90;;;;;;5092616;28;20415;-50
2021/12/23 07:25:31;;;;;;;231.98;87.38;;;-2.10;99.90;;;;;;5081682;28;20024;-50
2021/12/23 07:27:57;;;;;;;237.05;91.00;;;-1.90;99.90;;;;;;5090543;28;20363;-50
2021/12/23 07:30:23;;;;;;;243.25;93.32;;;-1.80;99.90;;;;;;5086743;28;20039;-50
2021/12/23 07:32:50;;;;;;;217.07;84.93;;;-1.70;99.90;;;;;;5090670;28;20670;-50
2021/12/23 07:35:21;;;;;;;246.77;93.32;;;-1.60;99.90;;;;;;5095719;28;20481;-51
2021/12/23 07:37:47;;;;;;;246.88;92.57;;;-0.80;99.90;;;;;;5082335;28;20027;-49
2021/12/23 07:40:22;;;;;;;234.52;90.35;;;0.10;99.90;;;;;;5080872;28;20060;-50
2021/12/23 07:42:56;;;;;;;232.10;88.50;;;0.20;99.90;;;;;;5092662;28;20036;-50
2021/12/23 07:45:27;;;;;;;246.65;99.55;;;0.10;99.90;;;;;;5091924;28;20028;-50
2021/12/23 07:47:53;;;;;;;225.52;91.70;;;-0.40;99.90;;;;;;5090472;28;20036;-50
2021/12/23 07:50:20;;;;;;;240.57;94.68;;;-0.50;99.90;;;;;;5092793;28;20042;-50
2021/12/23 07:52:46;;;;;;;234.20;93.88;;;-0.60;99.90;;;;;;5094979;28;20416;-50
2021/12/23 07:55:13;;;;;;;253.88;99.15;;;-0.60;99.90;;;;;;5093246;28;20035;-50
2021/12/23 07:57:39;;;;;;;254.20;100.13;;;-0.50;99.90;;;;;;5095279;28;20024;-50
2021/12/23 08:00:06;;;;;;;339.35;134.25;;;-0.50;99.90;;;;;;5099701;28;20537;-50
2021/12/23 08:02:43;;;;;;;350.27;145.13;;;-0.40;99.90;;;;;;5079638;28;20563;-49
2021/12/23 08:05:09;;;;;;;285.70;122.43;;;-0.60;99.90;;;;;;5072880;28;20470;-49
2021/12/23 08:07:35;;;;;;;303.83;128.20;;;-0.60;99.90;;;;;;5071008;28;20086;-50
2021/12/23 08:10:02;;;;;;;257.23;109.82;;;-0.80;99.90;;;;;;5073505;28;20075;-50
2021/12/23 08:12:28;;;;;;;263.08;107.22;;;-0.70;99.90;;;;;;5069109;28;20059;-49
2021/12/23 08:14:54;;;;;;;258.27;108.28;;;-0.60;99.90;;;;;;5064514;28;20123;-49
2021/12/23 08:17:21;;;;;;;346.85;132.30;;;-0.60;99.90;;;;;;5083617;28;20501;-50
2021/12/23 08:19:47;;;;;;;231.95;92.72;;;-0.40;99.90;;;;;;5076332;28;20027;-49
2021/12/23 08:30:10;;;;;;;185.70;67.28;;;-0.50;99.90;;;;;;5076762;28;20115;-50
2021/12/23 08:32:37;;;;;;;181.75;68.68;;;-0.40;99.90;;;;;;5094449;28;20423;-50
2021/12/23 08:35:04;;;;;;;178.93;68.22;;;-0.40;99.90;;;;;;5094771;28;20036;-50
2021/12/23 08:37:30;;;;;;;182.23;63.83;;;-0.40;99.90;;;;;;5097198;28;20032;-50
2021/12/23 08:39:57;;;;;;;175.25;68.80;;;-0.30;99.90;;;;;;5093934;28;20117;-50
2021/12/23 08:53:34;;;;;;;135.38;63.95;;;0.00;99.90;;;;;;5078150;28;20050;-49
2021/12/23 08:56:00;;;;;;;190.45;78.22;;;-0.10;99.90;;;;;;5078923;28;20038;-50
2021/12/23 08:58:26;;;;;;;220.77;81.40;;;0.10;99.90;;;;;;5078415;28;20035;-50
2021/12/23 09:00:52;;;;;;;237.38;93.22;;;0.10;99.90;;;;;;5078760;28;20119;-50
2021/12/23 09:03:18;;;;;;;212.10;82.10;;;0.40;99.90;;;;;;5079306;28;20049;-50
2021/12/23 09:05:44;;;;;;;236.65;82.82;;;0.40;99.90;;;;;;5089170;28;20032;-50
2021/12/23 09:08:10;;;;;;;289.02;105.65;;;0.50;99.90;;;;;;5119185;28;20035;-51
2021/12/23 09:10:37;;;;;;;147.07;61.92;;;0.60;99.90;;;;;;5116278;28;20031;-50
2021/12/23 09:13:03;;;;;;;159.68;68.55;;;0.70;99.90;;;;;;5094282;28;20040;-51
2021/12/23 09:15:30;;;;;;;208.60;87.30;;;0.80;99.90;;;;;;5098068;28;20113;-49
2021/12/23 09:17:57;;;;;;;249.60;98.00;;;0.90;99.90;;;;;;5101638;28;20040;-49
2021/12/23 09:20:23;;;;;;;273.48;104.78;;;1.00;99.90;;;;;;5118060;28;20107;-48
2021/12/23 09:22:51;;;;;;;243.40;105.40;;;1.10;99.90;;;;;;5100995;28;20039;-48
2021/12/23 09:25:24;;;;;;;263.77;109.80;;;1.20;99.90;;;;;;5101748;28;20476;-49
2021/12/23 09:33:16;;;;;;;200.25;75.93;;;1.30;99.90;;;;;;5096661;28;20088;-49
2021/12/23 09:35:43;;;;;;;254.25;103.78;;;1.40;99.90;;;;;;5097561;28;20377;-49
2021/12/23 09:38:10;;;;;;;223.50;95.53;;;1.60;99.90;;;;;;5097985;28;20020;-49
2021/12/23 09:40:37;;;;;;;221.80;91.80;;;1.50;99.90;;;;;;5096934;28;20016;-49
2021/12/23 09:43:06;;;;;;;200.70;86.18;;;1.40;99.90;;;;;;5096554;28;20115;-49
2021/12/23 09:45:34;;;;;;;244.45;89.57;;;1.50;99.90;;;;;;5096954;28;20582;-49
2021/12/23 09:48:04;;;;;;;205.32;88.63;;;1.70;99.90;;;;;;5084749;28;20428;-49
2021/12/23 09:50:34;;;;;;;258.23;105.03;;;1.80;99.90;;;;;;5072327;28;20066;-50
2021/12/23 09:53:03;;;;;;;280.48;120.90;;;1.70;99.90;;;;;;5094779;28;20741;-49
2021/12/23 09:55:30;;;;;;;271.33;114.80;;;1.70;99.90;;;;;;5093786;28;20034;-51
2021/12/23 09:57:58;;;;;;;320.60;129.27;;;1.80;99.90;;;;;;5092895;28;20054;-50
2021/12/23 10:00:31;;;;;;;342.50;137.57;;;2.00;99.90;;;;;;5105619;28;20051;-50
2021/12/23 10:02:58;;;;;;;329.02;136.02;;;1.90;99.90;;;;;;5094655;28;20044;-50
2021/12/23 10:05:29;;;;;;;332.63;140.55;;;1.90;99.90;;;;;;5094435;28;20485;-50
2021/12/23 10:07:56;;;;;;;353.85;147.43;;;1.90;99.90;;;;;;5076980;28;20028;-50
2021/12/23 10:10:32;;;;;;;381.67;158.13;;;1.90;99.90;;;;;;5091406;28;20029;-50
2021/12/23 10:30:44;;;;;;;435.42;200.32;;;3.50;99.90;;;;;;5081595;28;20469;-50
2021/12/23 10:37:05;;;;;;;487.50;209.32;;;4.20;99.90;;;;;;5095610;28;20028;-50
2021/12/23 10:38:44;;;;;;;501.60;234.30;;;5.30;99.90;;;;;;5095824;28;20028;-50
2021/12/23 10:41:14;;;;;;;484.08;230.43;;;5.60;98.50;;;;;;5095406;28;20034;-50
2021/12/23 10:43:44;;;;;;;537.13;265.42;;;6.10;98.20;;;;;;5095889;28;20424;-50
2021/12/23 10:46:19;;;;;;;547.90;267.20;;;6.20;96.00;;;;;;5086579;28;20110;-50
2021/12/23 10:49:05;;;;;;;529.05;258.98;;;6.50;96.20;;;;;;5096773;28;20056;-50
2021/12/23 10:52:02;;;;;;;529.30;256.80;;;6.60;95.70;;;;;;5093747;28;20111;-50
2021/12/23 11:00:34;;;;;;;527.95;259.10;;;6.90;93.70;;;;;;5094912;28;20363;-50
2021/12/23 11:03:43;;;;;;;510.57;252.83;;;6.90;94.80;;;;;;5090652;28;20052;-50
2021/12/23 12:05:33;;;;;;;338.77;154.23;;;6.60;96.70;;;;;;5028265;28;20052;-59
2021/12/23 12:08:14;;;;;;;355.30;158.55;;;6.40;97.20;;;;;;5075365;28;20037;-59
2021/12/23 12:10:43;;;;;;;336.55;159.45;;;6.40;97.30;;;;;;5070524;28;20527;-60
2021/12/23 12:13:12;;;;;;;338.95;160.93;;;6.30;98.00;;;;;;5069981;28;20027;-60
2021/12/23 12:15:47;;;;;;;344.13;157.80;;;6.30;97.70;;;;;;5068876;28;20072;-60
2021/12/23 12:23:00;;;;;;;328.23;154.57;;;6.20;97.80;;;;;;5058979;28;20022;-58
2021/12/23 12:25:25;;;;;;;332.35;149.52;;;6.00;98.20;;;;;;5072735;28;20520;-59
2021/12/23 12:28:25;;;;;;;358.58;152.25;;;6.00;98.40;;;;;;5067496;28;20080;-58
2021/12/23 12:30:58;;;;;;;321.48;147.48;;;5.90;99.20;;;;;;5083463;28;20020;-59
2021/12/23 12:33:24;;;;;;;318.63;143.80;;;5.80;99.80;;;;;;5044005;28;20064;-59
2021/12/23 12:36:03;;;;;;;318.55;142.57;;;5.80;99.90;;;;;;5086769;28;20499;-59
2021/12/23 12:38:33;;;;;;;327.95;146.15;;;5.70;99.90;;;;;;5053692;28;20052;-59
2021/12/23 12:41:08;;;;;;;312.42;147.18;;;5.70;99.90;;;;;;5085179;28;20040;-59
2021/12/23 12:43:46;;;;;;;307.63;143.63;;;5.60;99.90;;;;;;5090894;28;20032;-60
2021/12/23 12:46:30;;;;;;;314.35;143.65;;;5.60;99.80;;;;;;5084899;28;20110;-59
2021/12/23 12:48:56;;;;;;;300.30;146.35;;;5.70;99.90;;;;;;5077030;28;20034;-59
2021/12/23 12:51:33;;;;;;;306.20;141.10;;;5.80;99.90;;;;;;5059991;28;20043;-59
2021/12/23 12:54:04;;;;;;;288.50;139.52;;;5.80;99.90;;;;;;5067495;28;20032;-59
2021/12/23 12:56:31;;;;;;;;;;;5.90;99.90;;;;;;5075261;28;20032;-59
2021/12/23 12:58:58;;;;;;;262.00;125.97;;;6.10;99.90;;;;;;5073537;28;19947;-59
2021/12/23 13:01:41;;;;;;;262.40;125.93;;;6.10;99.90;;;;;;5071558;28;20097;-59
2021/12/23 13:04:22;;;;;;;254.32;126.07;;;6.10;99.90;;;;;;5083014;28;20036;-59
2021/12/23 13:06:49;;;;;;;266.67;129.68;;;6.40;99.90;;;;;;5078766;28;20055;-60
2021/12/23 13:09:48;;;;;;;279.40;137.68;;;6.50;99.30;;;;;;5093873;28;20104;-60
2021/12/23 13:12:52;;;;;;;287.88;138.43;;;6.70;99.50;;;;;;5094408;28;20157;-59
2021/12/23 13:15:44;;;;;;;275.00;138.02;;;6.80;99.00;;;;;;5090932;28;20064;-61
2021/12/23 13:18:21;;;;;;;295.70;137.13;;;6.80;99.10;;;;;;5092939;28;20020;-61
2021/12/23 13:21:05;;;;;;;274.55;133.70;;;6.80;98.80;;;;;;5092721;28;20139;-58
2021/12/23 13:23:36;;;;;;;270.52;131.75;;;6.70;98.90;;;;;;5083604;28;20098;-58
2021/12/23 13:26:06;;;;;;;;;;;6.70;99.70;;;;;;5092579;28;20107;-58
2021/12/23 13:28:42;;;;;;;300.63;136.23;;;6.90;99.50;;;;;;5090697;28;20319;-58
2021/12/23 13:31:15;;;;;;;248.77;128.45;;;7.00;99.80;;;;;;5093323;28;20126;-58
2021/12/23 13:33:54;;;;;;;275.60;136.75;;;7.00;98.30;;;;;;5095519;28;20058;-58
2021/12/23 13:36:23;;;;;;;278.42;133.43;;;6.70;99.30;;;;;;5097926;28;20028;-59
2021/12/23 13:39:14;;;;;;;278.23;134.63;;;6.80;99.50;;;;;;5097468;28;20016;-59
2021/12/23 13:41:48;;;;;;;274.90;136.73;;;6.80;99.50;;;;;;5095014;28;20044;-59
2021/12/23 13:44:14;;;;;;;275.67;136.30;;;6.80;99.10;;;;;;5097662;28;20110;-59
2021/12/23 13:46:45;;;;;;;288.92;136.05;;;6.70;99.90;;;;;;5096792;28;20117;-59
2021/12/23 13:49:11;;;;;;;266.83;133.20;;;6.60;99.90;;;;;;5094529;28;20027;-59
2021/12/23 13:51:39;;;;;;;260.33;128.05;;;6.50;99.90;;;;;;5095320;28;20035;-60
2021/12/23 13:54:09;;;;;;;254.95;125.80;;;6.40;99.90;;;;;;5095597;28;20024;-61
2021/12/23 13:56:38;;;;;;;244.85;123.10;;;6.40;99.90;;;;;;5092242;28;20020;-60
2021/12/23 13:59:18;;;;;;;246.18;127.75;;;6.10;99.90;;;;;;5106825;28;20428;-60
2021/12/23 14:01:55;;;;;;;245.40;124.25;;;6.00;99.90;;;;;;5095486;28;20103;-60
2021/12/23 14:04:39;;;;;;;246.10;125.32;;;6.00;99.90;;;;;;5088569;28;20020;-60
2021/12/23 14:07:34;;;;;;;268.88;125.70;;;5.70;99.90;;;;;;5096063;28;20097;-60
2021/12/23 14:10:11;;;;;;;257.40;121.60;;;5.50;99.90;;;;;;5095964;28;20450;-60
2021/12/23 14:12:56;;;;;;;251.50;129.70;;;5.30;99.90;;;;;;5093531;28;20036;-59
2021/12/23 14:15:37;;;;;;;259.17;123.63;;;5.20;99.90;;;;;;5100120;28;20016;-60
2021/12/23 14:18:18;;;;;;;251.05;125.85;;;5.10;99.90;;;;;;5095710;28;20035;-60
2021/12/23 14:23:35;;;;;;;277.08;130.75;;;5.10;99.90;;;;;;5092904;28;20035;-60
2021/12/23 14:26:05;;;;;;;298.15;139.85;;;5.10;99.90;;;;;;5097582;28;20116;-60
2021/12/23 14:28:43;;;;;;;295.33;136.30;;;4.90;99.90;;;;;;5097087;28;20154;-60
2021/12/23 14:31:12;;;;;;;280.33;130.20;;;4.70;99.90;;;;;;5096559;28;20473;-59
2021/12/23 14:33:44;;;;;;;275.40;124.07;;;4.70;99.90;;;;;;5096966;28;20024;-59
2021/12/23 14:36:12;;;;;;;344.15;151.07;;;4.60;99.90;;;;;;5096874;28;20023;-60
2021/12/23 14:38:41;;;;;;;275.95;129.25;;;4.70;99.90;;;;;;5096387;28;20028;-59
2021/12/23 14:41:18;;;;;;;273.38;130.32;;;4.50;99.90;;;;;;5096664;28;20024;-59
2021/12/23 14:44:02;;;;;;;272.23;127.03;;;4.30;99.90;;;;;;5096034;28;20385;-59